createdAt,value
2019-01-27T00:01:40.916Z,1.80
2019-01-27T00:04:08.982Z,1.60
2019-01-27T00:06:37.389Z,1.80
2019-01-27T00:09:09.325Z,1.80
2019-01-27T00:11:37.527Z,1.80
2019-01-27T00:14:05.574Z,1.60
2019-01-27T00:16:33.578Z,2.22
2019-01-27T00:19:01.717Z,2.17
2019-01-27T00:21:29.851Z,1.20
2019-01-27T00:23:57.981Z,1.47
2019-01-27T00:26:26.065Z,1.40
2019-01-27T00:28:54.109Z,2.00
2019-01-27T00:31:22.218Z,1.42
2019-01-27T00:33:50.365Z,1.50
2019-01-27T00:36:18.490Z,1.30
2019-01-27T00:38:46.523Z,1.57
2019-01-27T00:41:14.600Z,1.50
2019-01-27T00:43:42.638Z,1.92
2019-01-27T00:46:10.714Z,1.80
2019-01-27T00:48:38.862Z,1.60
2019-01-27T00:51:06.906Z,1.65
2019-01-27T00:53:35.042Z,1.60
2019-01-27T00:56:03.084Z,1.92
2019-01-27T00:58:31.148Z,1.55
2019-01-27T01:00:59.164Z,1.65
2019-01-27T01:03:28.862Z,1.57
2019-01-27T01:05:56.970Z,1.42
2019-01-27T01:08:25.003Z,1.80
2019-01-27T01:10:53.033Z,1.87
2019-01-27T01:13:21.117Z,2.10
2019-01-27T01:15:49.179Z,1.70
2019-01-27T01:18:17.283Z,1.72
2019-01-27T01:20:45.305Z,1.98
2019-01-27T01:23:13.363Z,1.60
2019-01-27T01:25:41.415Z,1.50
2019-01-27T01:28:09.489Z,2.20
2019-01-27T01:30:37.528Z,1.52
2019-01-27T01:33:05.581Z,1.42
2019-01-27T01:35:33.595Z,1.57
2019-01-27T01:38:01.600Z,1.20
2019-01-27T01:40:29.643Z,0.88
2019-01-27T01:42:57.683Z,1.42
2019-01-27T01:45:27.844Z,1.50
2019-01-27T01:47:55.891Z,1.40
2019-01-27T01:50:23.947Z,1.10
2019-01-27T01:52:52.038Z,1.47
2019-01-27T01:55:20.067Z,1.57
2019-01-27T01:57:48.079Z,1.60
2019-01-27T02:00:20.946Z,1.50
2019-01-27T02:02:48.965Z,1.45
2019-01-27T02:05:17.402Z,0.90
2019-01-27T02:07:45.392Z,1.42
2019-01-27T02:10:14.753Z,1.10
2019-01-27T02:12:42.854Z,0.72
2019-01-27T02:15:35.551Z,1.55
2019-01-27T02:18:03.625Z,1.20
2019-01-27T02:20:31.631Z,1.15
2019-01-27T02:22:59.599Z,1.52
2019-01-27T02:25:27.573Z,0.85
2019-01-27T02:27:55.643Z,1.70
2019-01-27T02:30:23.653Z,1.05
2019-01-27T02:32:51.599Z,1.20
2019-01-27T02:35:19.652Z,1.50
2019-01-27T02:37:47.683Z,0.82
2019-01-27T02:40:15.697Z,1.07
2019-01-27T02:42:43.673Z,1.17
2019-01-27T02:45:12.244Z,1.20
2019-01-27T02:47:40.324Z,1.47
2019-01-27T02:50:08.439Z,1.20
2019-01-27T02:52:36.478Z,1.22
2019-01-27T02:55:04.542Z,1.40
2019-01-27T02:57:32.530Z,1.30
2019-01-27T03:00:00.574Z,1.27
2019-01-27T03:02:28.766Z,1.12
2019-01-27T03:04:58.569Z,1.27
2019-01-27T03:07:32.675Z,1.27
2019-01-27T03:10:00.856Z,1.35
2019-01-27T03:12:28.823Z,1.42
2019-01-27T03:14:56.892Z,1.15
2019-01-27T03:17:24.931Z,1.25
2019-01-27T03:19:55.288Z,1.07
2019-01-27T03:22:23.271Z,0.75
2019-01-27T03:24:51.334Z,1.32
2019-01-27T03:27:19.402Z,1.30
2019-01-27T03:29:47.496Z,2.00
2019-01-27T03:32:15.591Z,1.20
2019-01-27T03:34:43.994Z,1.37
2019-01-27T03:37:12.013Z,1.20
2019-01-27T03:39:40.146Z,1.05
2019-01-27T03:42:08.216Z,0.90
2019-01-27T03:44:36.389Z,1.25
2019-01-27T03:47:04.402Z,1.10
2019-01-27T03:49:32.462Z,1.42
2019-01-27T03:52:00.552Z,1.07
2019-01-27T03:54:28.559Z,1.32
2019-01-27T03:56:56.576Z,1.10
2019-01-27T03:59:24.748Z,0.93
2019-01-27T04:01:52.795Z,1.30
2019-01-27T04:04:20.796Z,1.00
2019-01-27T04:06:48.847Z,1.15
2019-01-27T04:09:17.009Z,1.17
2019-01-27T04:11:45.115Z,1.30
2019-01-27T04:14:13.214Z,1.42
2019-01-27T04:16:41.294Z,0.88
2019-01-27T04:19:09.358Z,0.93
2019-01-27T04:21:37.443Z,0.90
2019-01-27T04:24:05.434Z,1.05
2019-01-27T04:26:33.502Z,1.10
2019-01-27T04:29:01.546Z,1.17
2019-01-27T04:31:29.657Z,0.80
2019-01-27T04:33:57.694Z,1.17
2019-01-27T04:36:25.767Z,1.12
2019-01-27T04:38:56.841Z,1.02
2019-01-27T04:41:25.071Z,0.88
2019-01-27T04:43:53.091Z,1.10
2019-01-27T04:46:21.199Z,1.20
2019-01-27T04:48:49.269Z,1.20
2019-01-27T04:51:17.410Z,1.12
2019-01-27T04:53:45.513Z,0.93
2019-01-27T04:56:13.564Z,1.30
2019-01-27T04:58:41.606Z,1.32
2019-01-27T05:01:09.681Z,0.80
2019-01-27T05:03:56.747Z,0.90
2019-01-27T05:06:24.874Z,1.10
2019-01-27T05:08:52.852Z,0.62
2019-01-27T05:11:20.982Z,0.78
2019-01-27T05:13:49.034Z,0.80
2019-01-27T05:16:17.168Z,0.72
2019-01-27T05:18:45.218Z,0.90
2019-01-27T05:21:13.205Z,1.27
2019-01-27T05:23:43.920Z,1.25
2019-01-27T05:28:39.153Z,0.60
2019-01-27T05:31:07.261Z,1.30
2019-01-27T05:33:35.376Z,1.40
2019-01-27T05:36:03.484Z,1.15
2019-01-27T05:38:31.545Z,1.40
2019-01-27T05:40:59.633Z,0.93
2019-01-27T05:43:27.741Z,0.98
2019-01-27T05:45:55.823Z,0.78
2019-01-27T05:48:23.816Z,1.20
2019-01-27T05:50:51.895Z,0.62
2019-01-27T05:53:19.930Z,1.10
2019-01-27T05:55:47.942Z,1.30
2019-01-27T05:58:15.972Z,0.80
2019-01-27T06:00:45.986Z,0.45
2019-01-27T06:03:13.988Z,1.17
2019-01-27T06:05:42.026Z,0.80
2019-01-27T06:08:10.077Z,1.10
2019-01-27T06:10:38.187Z,0.88
2019-01-27T06:13:06.306Z,0.95
2019-01-27T06:15:34.364Z,0.82
2019-01-27T06:18:02.475Z,0.90
2019-01-27T06:20:30.538Z,1.20
2019-01-27T06:22:58.530Z,0.95
2019-01-27T06:25:26.708Z,1.20
2019-01-27T06:27:54.822Z,0.60
2019-01-27T06:30:24.301Z,0.70
2019-01-27T06:33:14.090Z,0.78
2019-01-27T06:35:42.386Z,1.10
2019-01-27T06:38:10.515Z,0.90
2019-01-27T06:40:38.527Z,0.78
2019-01-27T06:43:06.521Z,0.42
2019-01-27T06:45:34.517Z,0.82
2019-01-27T06:48:02.547Z,0.75
2019-01-27T06:50:30.567Z,0.33
2019-01-27T06:52:58.639Z,0.78
2019-01-27T06:55:26.661Z,0.42
2019-01-27T06:57:54.726Z,1.20
2019-01-27T07:00:42.431Z,0.70
2019-01-27T07:03:14.729Z,0.60
2019-01-27T07:05:51.073Z,0.80
2019-01-27T07:08:26.391Z,0.35
2019-01-27T07:11:13.361Z,1.10
2019-01-27T07:14:03.091Z,0.82
2019-01-27T07:16:50.114Z,0.72
2019-01-27T07:19:35.619Z,0.98
2019-01-27T07:22:11.628Z,1.10
2019-01-27T07:24:46.131Z,0.78
2019-01-27T07:27:38.884Z,0.80
2019-01-27T07:30:50.108Z,0.37
2019-01-27T07:33:47.670Z,0.42
2019-01-27T07:36:33.104Z,1.05
2019-01-27T07:39:14.900Z,0.70
2019-01-27T07:42:02.418Z,1.12
2019-01-27T07:44:38.806Z,1.17
2019-01-27T07:47:11.780Z,0.75
2019-01-27T07:49:59.062Z,0.75
2019-01-27T07:52:45.220Z,0.57
2019-01-27T07:55:32.557Z,0.80
2019-01-27T07:58:37.846Z,0.90
2019-01-27T08:01:16.115Z,1.30
2019-01-27T08:04:03.218Z,0.95
2019-01-27T08:06:59.199Z,0.88
2019-01-27T08:09:46.323Z,0.72
2019-01-27T08:12:37.000Z,0.70
2019-01-27T08:15:24.523Z,0.80
2019-01-27T08:18:20.455Z,0.80
2019-01-27T08:21:00.955Z,0.72
2019-01-27T08:23:43.671Z,0.78
2019-01-27T08:26:39.655Z,1.10
2019-01-27T08:29:26.587Z,0.70
2019-01-27T08:32:16.763Z,1.25
2019-01-27T08:34:58.496Z,0.90
2019-01-27T08:37:41.032Z,0.90
2019-01-27T08:40:27.926Z,1.10
2019-01-27T08:43:10.484Z,1.20
2019-01-27T08:45:52.330Z,1.10
2019-01-27T08:48:20.474Z,1.12
2019-01-27T08:50:48.581Z,1.90
2019-01-27T08:53:16.704Z,2.45
2019-01-27T08:55:44.768Z,1.62
2019-01-27T08:58:13.048Z,0.85
2019-01-27T09:00:44.201Z,1.20
2019-01-27T09:03:34.223Z,0.82
2019-01-27T09:06:30.138Z,0.90
2019-01-27T09:09:12.736Z,1.00
2019-01-27T09:11:57.912Z,0.72
2019-01-27T09:14:50.997Z,0.90
2019-01-27T09:17:42.361Z,0.68
2019-01-27T09:20:36.615Z,1.10
2019-01-27T09:23:22.664Z,0.80
2019-01-27T09:26:03.093Z,0.68
2019-01-27T09:28:35.845Z,0.50
2019-01-27T09:31:23.197Z,0.60
2019-01-27T09:34:13.328Z,0.70
2019-01-27T09:36:49.307Z,0.45
2019-01-27T09:39:45.268Z,1.00
2019-01-27T09:42:38.240Z,0.70
2019-01-27T09:45:16.273Z,2.00
2019-01-27T09:47:54.601Z,1.12
2019-01-27T09:50:41.729Z,1.40
2019-01-27T09:53:28.732Z,1.32
2019-01-27T09:56:05.771Z,3.95
2019-01-27T09:59:07.945Z,3.12
2019-01-27T10:01:42.698Z,2.25
2019-01-27T10:04:29.845Z,0.80
2019-01-27T10:07:16.982Z,1.02
2019-01-27T10:10:07.070Z,1.50
2019-01-27T10:13:00.633Z,0.90
2019-01-27T10:15:47.727Z,0.78
2019-01-27T10:18:38.096Z,0.80
2019-01-27T10:21:23.987Z,0.80
2019-01-27T10:23:58.221Z,0.70
2019-01-27T10:26:44.221Z,0.80
2019-01-27T10:29:27.879Z,0.70
2019-01-27T10:32:14.955Z,1.45
2019-01-27T10:35:01.059Z,1.62
2019-01-27T10:37:57.298Z,1.30
2019-01-27T10:40:42.073Z,0.80
2019-01-27T10:43:29.041Z,1.22
2019-01-27T10:46:18.087Z,1.00
2019-01-27T10:49:11.861Z,0.70
2019-01-27T10:51:50.377Z,0.75
2019-01-27T10:54:34.121Z,0.82
2019-01-27T10:57:24.489Z,0.65
2019-01-27T11:00:20.790Z,0.40
2019-01-27T11:03:17.518Z,0.78
2019-01-27T11:06:23.072Z,0.55
2019-01-27T11:09:01.697Z,0.55
2019-01-27T11:11:47.921Z,0.30
2019-01-27T11:14:35.029Z,0.60
2019-01-27T11:17:25.168Z,0.30
2019-01-27T11:19:58.722Z,0.35
2019-01-27T11:22:40.889Z,0.30
2019-01-27T11:25:38.250Z,0.55
2019-01-27T11:28:24.210Z,0.20
2019-01-27T11:31:11.351Z,0.30
2019-01-27T11:33:52.735Z,0.60
2019-01-27T11:36:38.437Z,0.60
2019-01-27T11:39:26.457Z,0.95
2019-01-27T11:42:20.433Z,1.30
2019-01-27T11:45:22.837Z,1.32
2019-01-27T11:48:10.035Z,2.15
2019-01-27T11:50:43.555Z,0.45
2019-01-27T11:53:11.691Z,0.62
2019-01-27T11:55:39.957Z,0.37
2019-01-27T11:58:08.275Z,0.20
2019-01-27T12:00:39.472Z,0.30
2019-01-27T12:03:08.030Z,0.40
2019-01-27T12:05:36.600Z,0.40
2019-01-27T12:08:04.900Z,0.42
2019-01-27T12:10:33.350Z,0.30
2019-01-27T12:13:02.042Z,0.33
2019-01-27T12:15:30.558Z,0.30
2019-01-27T12:17:59.234Z,0.20
2019-01-27T12:20:27.498Z,0.45
2019-01-27T12:22:55.986Z,0.28
2019-01-27T12:25:24.470Z,0.20
2019-01-27T12:27:52.863Z,0.20
2019-01-27T12:30:21.159Z,0.20
2019-01-27T12:32:49.579Z,0.30
2019-01-27T12:35:17.942Z,0.20
2019-01-27T12:37:46.062Z,0.20
2019-01-27T12:40:19.715Z,0.40
2019-01-27T12:42:49.086Z,0.20
2019-01-27T12:45:17.361Z,0.20
2019-01-27T12:47:46.183Z,0.23
2019-01-27T12:50:15.823Z,0.20
2019-01-27T12:52:44.475Z,0.17
2019-01-27T12:55:13.955Z,0.10
2019-01-27T12:57:42.426Z,0.10
2019-01-27T13:00:20.575Z,0.30
2019-01-27T13:02:49.082Z,0.20
2019-01-27T13:05:18.540Z,0.30
2019-01-27T13:07:47.553Z,0.35
2019-01-27T13:10:16.221Z,0.20
2019-01-27T13:12:44.772Z,0.30
2019-01-27T13:15:15.658Z,0.23
2019-01-27T13:17:44.622Z,0.30
2019-01-27T13:20:12.985Z,0.20
2019-01-27T13:22:44.300Z,0.40
2019-01-27T13:25:13.963Z,0.20
2019-01-27T13:27:42.578Z,0.40
2019-01-27T13:30:17.124Z,0.30
2019-01-27T13:32:47.880Z,0.25
2019-01-27T13:35:16.865Z,0.47
2019-01-27T13:37:45.647Z,0.40
2019-01-27T13:40:17.437Z,0.30
2019-01-27T13:42:46.215Z,0.60
2019-01-27T13:45:18.013Z,0.40
2019-01-27T13:47:46.815Z,0.40
2019-01-27T13:50:17.651Z,0.50
2019-01-27T13:52:46.949Z,1.00
2019-01-27T13:55:20.149Z,0.60
2019-01-27T13:57:49.135Z,0.75
2019-01-27T14:00:20.549Z,0.70
2019-01-27T14:02:49.191Z,0.82
2019-01-27T14:05:17.869Z,1.10
2019-01-27T14:07:46.150Z,5.33
2019-01-27T14:10:16.949Z,1.10
2019-01-27T14:12:45.253Z,0.80
2019-01-27T14:15:16.836Z,0.60
2019-01-27T14:17:45.227Z,0.60
2019-01-27T14:20:15.875Z,0.60
2019-01-27T14:25:12.596Z,0.40
2019-01-27T14:27:40.961Z,0.45
2019-01-27T14:30:12.408Z,0.57
2019-01-27T14:32:40.962Z,0.53
2019-01-27T14:35:11.132Z,0.20
2019-01-27T14:37:39.352Z,0.30
2019-01-27T14:40:09.220Z,0.30
2019-01-27T14:42:37.615Z,0.30
2019-01-27T14:45:09.259Z,0.45
2019-01-27T14:47:37.723Z,0.30
2019-01-27T14:50:08.893Z,0.30
2019-01-27T14:52:37.210Z,0.30
2019-01-27T14:55:06.188Z,0.85
2019-01-27T14:57:34.543Z,0.40
2019-01-27T15:00:02.863Z,0.57
2019-01-27T15:02:31.015Z,0.70
2019-01-27T15:04:59.322Z,0.65
2019-01-27T15:07:27.967Z,0.90
2019-01-27T15:09:56.676Z,0.60
2019-01-27T15:12:27.377Z,1.12
2019-01-27T15:14:55.879Z,0.60
2019-01-27T15:17:24.224Z,0.57
2019-01-27T15:19:52.724Z,0.60
2019-01-27T15:22:21.449Z,0.80
2019-01-27T15:24:50.178Z,1.10
2019-01-27T15:27:19.822Z,1.40
2019-01-27T15:29:48.352Z,1.07
2019-01-27T15:32:16.726Z,0.88
2019-01-27T15:34:45.158Z,0.50
2019-01-27T15:37:13.664Z,0.60
2019-01-27T15:39:43.084Z,0.82
2019-01-27T15:42:11.322Z,0.65
2019-01-27T15:44:39.675Z,1.10
2019-01-27T15:47:08.490Z,0.62
2019-01-27T15:49:36.997Z,0.70
2019-01-27T15:52:05.354Z,0.50
2019-01-27T15:54:34.755Z,0.60
2019-01-27T15:57:03.343Z,0.60
2019-01-27T15:59:31.918Z,0.40
2019-01-27T16:02:00.999Z,1.00
2019-01-27T16:04:32.357Z,1.25
2019-01-27T16:07:01.586Z,0.80
2019-01-27T16:09:30.127Z,0.65
2019-01-27T16:11:59.069Z,0.70
2019-01-27T16:14:28.052Z,0.40
2019-01-27T16:16:57.840Z,0.60
2019-01-27T16:19:26.610Z,0.40
2019-01-27T16:21:55.807Z,2.05
2019-01-27T16:27:06.810Z,1.12
2019-01-27T16:30:06.469Z,1.60
2019-01-27T16:32:37.646Z,1.60
2019-01-27T16:35:11.495Z,1.00
2019-01-27T16:37:42.420Z,0.90
2019-01-27T16:40:13.705Z,1.57
2019-01-27T16:42:42.217Z,1.80
2019-01-27T16:45:12.402Z,1.40
2019-01-27T16:47:40.687Z,1.10
2019-01-27T16:50:12.553Z,1.30
2019-01-27T16:52:44.329Z,0.62
2019-01-27T16:55:15.532Z,1.40
2019-01-27T16:57:44.630Z,1.60
2019-01-27T17:00:20.188Z,0.80
2019-01-27T17:02:49.708Z,0.62
2019-01-27T17:05:18.954Z,0.80
2019-01-27T17:07:48.207Z,2.25
2019-01-27T17:10:19.003Z,1.20
2019-01-27T17:12:48.137Z,1.22
2019-01-27T17:15:17.748Z,0.80
2019-01-27T17:17:47.256Z,1.00
2019-01-27T17:20:17.615Z,2.92
2019-01-27T17:22:46.745Z,20.37
2019-01-27T17:25:17.096Z,7.33
2019-01-27T17:27:46.731Z,5.22
2019-01-27T17:30:17.278Z,4.77
2019-01-27T17:35:14.723Z,2.77
2019-01-27T17:37:43.341Z,4.03
2019-01-27T17:40:13.754Z,2.95
2019-01-27T17:42:42.768Z,1.72
2019-01-27T17:45:14.641Z,1.95
2019-01-27T17:47:43.053Z,1.12
2019-01-27T17:50:14.464Z,0.93
2019-01-27T17:52:43.297Z,0.70
2019-01-27T17:55:33.420Z,2.00
2019-01-27T17:58:08.158Z,0.88
2019-01-27T18:00:58.932Z,1.15
2019-01-27T18:03:47.275Z,1.67
2019-01-27T18:06:27.148Z,1.45
2019-01-27T18:09:15.017Z,2.15
2019-01-27T18:11:57.959Z,2.00
2019-01-27T18:14:31.332Z,1.98
2019-01-27T18:17:00.232Z,2.02
2019-01-27T18:19:30.407Z,1.90
2019-01-27T18:22:19.974Z,2.45
2019-01-27T18:24:49.341Z,2.47
2019-01-27T18:27:19.835Z,1.90
2019-01-27T18:30:15.436Z,1.67
2019-01-27T18:32:45.312Z,1.20
2019-01-27T18:35:14.934Z,0.88
2019-01-27T18:37:46.883Z,0.95
2019-01-27T18:40:16.939Z,1.55
2019-01-27T18:42:46.725Z,1.47
2019-01-27T18:45:18.370Z,1.42
2019-01-27T18:47:49.705Z,1.15
2019-01-27T18:50:20.995Z,1.37
2019-01-27T18:52:57.401Z,1.00
2019-01-27T18:55:33.486Z,1.05
2019-01-27T18:58:20.382Z,0.42
2019-01-27T19:00:58.104Z,1.40
2019-01-27T19:03:42.344Z,0.88
2019-01-27T19:06:29.324Z,1.37
2019-01-27T19:09:20.667Z,1.05
2019-01-27T19:12:17.827Z,0.70
2019-01-27T19:15:05.207Z,0.82
2019-01-27T19:17:41.414Z,2.02
2019-01-27T19:20:30.959Z,1.62
2019-01-27T19:23:24.579Z,1.25
2019-01-27T19:26:13.143Z,1.20
2019-01-27T19:29:06.841Z,1.47
2019-01-27T19:31:45.598Z,1.42
2019-01-27T19:34:38.104Z,2.10
2019-01-27T19:37:31.281Z,1.37
2019-01-27T19:40:12.173Z,1.95
2019-01-27T19:45:49.755Z,1.62
2019-01-27T19:48:29.622Z,2.40
2019-01-27T19:51:28.569Z,1.90
2019-01-27T19:54:22.804Z,1.42
2019-01-27T19:57:09.923Z,2.02
2019-01-27T19:59:49.304Z,1.82
2019-01-27T20:02:49.839Z,1.72
2019-01-27T20:05:33.727Z,2.60
2019-01-27T20:08:16.489Z,2.62
2019-01-27T20:11:08.091Z,2.42
2019-01-27T20:13:59.258Z,1.80
2019-01-27T20:16:38.847Z,1.87
2019-01-27T20:19:30.119Z,1.98
2019-01-27T20:22:27.389Z,1.57
2019-01-27T20:25:11.001Z,1.42
2019-01-27T20:28:05.540Z,1.40
2019-01-27T20:31:01.953Z,1.45
2019-01-27T20:33:53.760Z,1.65
2019-01-27T20:36:34.620Z,1.50
2019-01-27T20:39:12.850Z,2.40
2019-01-27T20:42:10.581Z,1.90
2019-01-27T20:44:55.114Z,1.50
2019-01-27T20:47:38.784Z,1.87
2019-01-27T20:50:28.142Z,1.82
2019-01-27T20:53:13.808Z,2.22
2019-01-27T20:56:04.650Z,2.08
2019-01-27T20:58:43.457Z,2.02
2019-01-27T21:01:37.109Z,2.45
2019-01-27T21:04:17.474Z,2.25
2019-01-27T21:07:08.328Z,1.45
2019-01-27T21:09:52.135Z,1.35
2019-01-27T21:12:39.659Z,2.20
2019-01-27T21:15:57.481Z,1.92
2019-01-27T21:18:39.500Z,2.42
2019-01-27T21:21:08.678Z,2.52
2019-01-27T21:23:37.861Z,2.35
2019-01-27T21:26:07.504Z,2.20
2019-01-27T21:28:36.375Z,2.40
2019-01-27T21:31:05.294Z,2.45
2019-01-27T21:33:34.360Z,2.42
2019-01-27T21:36:02.550Z,1.90
2019-01-27T21:38:50.079Z,1.75
2019-01-27T21:41:18.404Z,2.40
2019-01-27T21:43:46.541Z,1.85
2019-01-27T21:46:14.903Z,2.33
2019-01-27T21:48:43.307Z,2.30
2019-01-27T21:51:11.943Z,2.52
2019-01-27T21:53:40.264Z,4.90
2019-01-27T21:56:08.652Z,3.98
2019-01-27T21:58:36.812Z,3.45
2019-01-27T22:01:05.976Z,3.15
2019-01-27T22:03:34.144Z,4.10
2019-01-27T22:06:02.187Z,3.27
2019-01-27T22:08:30.553Z,3.37
2019-01-27T22:10:59.150Z,2.92
2019-01-27T22:13:27.367Z,2.98
2019-01-27T22:15:55.449Z,3.10
2019-01-27T22:18:23.536Z,3.12
2019-01-27T22:20:51.643Z,2.80
2019-01-27T22:23:19.779Z,2.83
2019-01-27T22:25:47.899Z,3.15
2019-01-27T22:28:17.617Z,2.37
2019-01-27T22:30:46.289Z,3.72
2019-01-27T22:33:16.706Z,3.08
2019-01-27T22:35:44.870Z,3.33
2019-01-27T22:38:13.341Z,3.45
2019-01-27T22:40:41.375Z,2.83
2019-01-27T22:43:09.426Z,2.52
2019-01-27T22:45:37.633Z,2.80
2019-01-27T22:48:05.811Z,3.35
2019-01-27T22:50:33.985Z,1.98
2019-01-27T22:53:02.075Z,2.50
2019-01-27T22:55:30.244Z,2.60
2019-01-27T22:57:58.346Z,2.85
2019-01-27T23:00:56.138Z,3.22
2019-01-27T23:03:24.658Z,2.72
2019-01-27T23:05:52.946Z,2.05
2019-01-27T23:08:20.942Z,4.03
2019-01-27T23:10:49.036Z,3.58
2019-01-27T23:13:17.292Z,4.10
2019-01-27T23:15:45.386Z,3.45
2019-01-27T23:18:13.504Z,4.25
2019-01-27T23:20:41.512Z,5.92
2019-01-27T23:23:10.056Z,3.80
2019-01-27T23:25:38.149Z,4.72
2019-01-27T23:28:06.220Z,4.90
2019-01-27T23:30:34.291Z,4.65
2019-01-27T23:33:02.380Z,4.37
2019-01-27T23:35:30.446Z,3.47
2019-01-27T23:37:58.629Z,3.77
2019-01-27T23:40:26.724Z,4.25
2019-01-27T23:42:54.915Z,4.75
2019-01-27T23:45:22.935Z,3.90
2019-01-27T23:47:53.661Z,4.58
2019-01-27T23:52:49.009Z,5.12
2019-01-27T23:55:17.067Z,5.12
2019-01-27T23:57:45.375Z,4.30
